sensor_id;sensor_type;location;lat;lon;timestamp;P1;durP1;ratioP1;P2;durP2;ratioP2
70071;SDS011;57434;42.794;23.302;2022-10-10T00:01:19;26.63;;;11.80;;
70071;SDS011;57434;42.794;23.302;2022-10-10T00:03:46;24.93;;;14.93;;
70071;SDS011;57434;42.794;23.302;2022-10-10T00:06:14;27.33;;;15.68;;
70071;SDS011;57434;42.794;23.302;2022-10-10T00:08:42;29.17;;;15.75;;
70071;SDS011;57434;42.794;23.302;2022-10-10T00:11:10;25.52;;;15.32;;
70071;SDS011;57434;42.794;23.302;2022-10-10T00:13:38;22.30;;;12.90;;
70071;SDS011;57434;42.794;23.302;2022-10-10T00:16:06;20.43;;;12.77;;
70071;SDS011;57434;42.794;23.302;2022-10-10T00:18:34;23.88;;;12.27;;
70071;SDS011;57434;42.794;23.302;2022-10-10T00:21:01;24.35;;;13.80;;
70071;SDS011;57434;42.794;23.302;2022-10-10T00:23:28;22.02;;;13.48;;
70071;SDS011;57434;42.794;23.302;2022-10-10T00:25:54;23.60;;;13.73;;
70071;SDS011;57434;42.794;23.302;2022-10-10T00:28:21;21.97;;;14.17;;
70071;SDS011;57434;42.794;23.302;2022-10-10T00:30:48;27.08;;;13.88;;
70071;SDS011;57434;42.794;23.302;2022-10-10T00:33:15;23.70;;;13.30;;
70071;SDS011;57434;42.794;23.302;2022-10-10T00:35:43;21.40;;;13.30;;
70071;SDS011;57434;42.794;23.302;2022-10-10T00:38:10;24.65;;;13.32;;
70071;SDS011;57434;42.794;23.302;2022-10-10T00:40:53;21.73;;;12.53;;
70071;SDS011;57434;42.794;23.302;2022-10-10T00:43:22;22.15;;;12.60;;
70071;SDS011;57434;42.794;23.302;2022-10-10T00:45:51;19.58;;;12.13;;
70071;SDS011;57434;42.794;23.302;2022-10-10T00:53:39;20.47;;;13.07;;
70071;SDS011;57434;42.794;23.302;2022-10-10T00:56:10;22.02;;;12.60;;
70071;SDS011;57434;42.794;23.302;2022-10-10T00:58:40;23.42;;;12.70;;
70071;SDS011;57434;42.794;23.302;2022-10-10T01:01:10;20.88;;;12.20;;
70071;SDS011;57434;42.794;23.302;2022-10-10T01:03:37;19.73;;;11.77;;
70071;SDS011;57434;42.794;23.302;2022-10-10T01:06:05;22.60;;;11.90;;
70071;SDS011;57434;42.794;23.302;2022-10-10T01:08:32;19.20;;;10.98;;
70071;SDS011;57434;42.794;23.302;2022-10-10T01:11:05;19.00;;;10.50;;
70071;SDS011;57434;42.794;23.302;2022-10-10T01:13:57;16.80;;;8.95;;
70071;SDS011;57434;42.794;23.302;2022-10-10T01:17:11;15.68;;;9.07;;
70071;SDS011;57434;42.794;23.302;2022-10-10T01:28:44;12.55;;;7.07;;
70071;SDS011;57434;42.794;23.302;2022-10-10T01:31:33;16.15;;;7.80;;
70071;SDS011;57434;42.794;23.302;2022-10-10T01:34:07;13.53;;;6.80;;
70071;SDS011;57434;42.794;23.302;2022-10-10T01:39:45;14.30;;;8.20;;
70071;SDS011;57434;42.794;23.302;2022-10-10T01:42:30;13.50;;;8.02;;
70071;SDS011;57434;42.794;23.302;2022-10-10T01:45:05;15.63;;;9.15;;
70071;SDS011;57434;42.794;23.302;2022-10-10T01:47:32;14.63;;;8.20;;
70071;SDS011;57434;42.794;23.302;2022-10-10T01:50:04;19.17;;;8.38;;
70071;SDS011;57434;42.794;23.302;2022-10-10T01:53:40;17.73;;;9.45;;
70071;SDS011;57434;42.794;23.302;2022-10-10T02:03:53;20.55;;;9.25;;
70071;SDS011;57434;42.794;23.302;2022-10-10T02:06:41;15.50;;;9.52;;
70071;SDS011;57434;42.794;23.302;2022-10-10T02:09:14;26.80;;;11.93;;
70071;SDS011;57434;42.794;23.302;2022-10-10T02:11:50;19.02;;;11.45;;
70071;SDS011;57434;42.794;23.302;2022-10-10T02:14:18;20.33;;;12.23;;
70071;SDS011;57434;42.794;23.302;2022-10-10T02:16:49;22.50;;;12.32;;
70071;SDS011;57434;42.794;23.302;2022-10-10T02:19:20;21.48;;;12.40;;
70071;SDS011;57434;42.794;23.302;2022-10-10T02:21:49;21.60;;;13.13;;
70071;SDS011;57434;42.794;23.302;2022-10-10T02:24:18;22.17;;;11.43;;
70071;SDS011;57434;42.794;23.302;2022-10-10T02:26:51;22.30;;;12.13;;
70071;SDS011;57434;42.794;23.302;2022-10-10T02:29:23;19.60;;;11.48;;
70071;SDS011;57434;42.794;23.302;2022-10-10T02:34:41;16.27;;;10.50;;
70071;SDS011;57434;42.794;23.302;2022-10-10T02:37:13;18.65;;;10.35;;
70071;SDS011;57434;42.794;23.302;2022-10-10T02:39:42;16.43;;;9.47;;
70071;SDS011;57434;42.794;23.302;2022-10-10T02:42:13;16.42;;;9.80;;
70071;SDS011;57434;42.794;23.302;2022-10-10T02:44:43;17.08;;;9.25;;
70071;SDS011;57434;42.794;23.302;2022-10-10T02:47:11;14.75;;;8.82;;
70071;SDS011;57434;42.794;23.302;2022-10-10T02:49:39;15.88;;;9.05;;
70071;SDS011;57434;42.794;23.302;2022-10-10T02:52:06;14.17;;;8.60;;
70071;SDS011;57434;42.794;23.302;2022-10-10T02:54:34;16.70;;;8.48;;
70071;SDS011;57434;42.794;23.302;2022-10-10T02:57:01;14.63;;;7.85;;
70071;SDS011;57434;42.794;23.302;2022-10-10T02:59:28;14.73;;;7.88;;
70071;SDS011;57434;42.794;23.302;2022-10-10T03:01:55;15.10;;;8.82;;
70071;SDS011;57434;42.794;23.302;2022-10-10T03:04:22;16.60;;;7.30;;
70071;SDS011;57434;42.794;23.302;2022-10-10T03:06:49;13.57;;;7.35;;
70071;SDS011;57434;42.794;23.302;2022-10-10T03:09:16;15.73;;;8.55;;
70071;SDS011;57434;42.794;23.302;2022-10-10T03:11:43;13.27;;;7.93;;
70071;SDS011;57434;42.794;23.302;2022-10-10T03:14:10;17.85;;;8.95;;
70071;SDS011;57434;42.794;23.302;2022-10-10T03:16:37;13.60;;;7.63;;
70071;SDS011;57434;42.794;23.302;2022-10-10T03:19:03;13.90;;;8.30;;
70071;SDS011;57434;42.794;23.302;2022-10-10T03:21:31;13.07;;;7.75;;
70071;SDS011;57434;42.794;23.302;2022-10-10T03:23:57;17.48;;;7.63;;
70071;SDS011;57434;42.794;23.302;2022-10-10T03:26:24;14.27;;;7.47;;
70071;SDS011;57434;42.794;23.302;2022-10-10T03:28:51;13.23;;;7.53;;
70071;SDS011;57434;42.794;23.302;2022-10-10T03:31:18;12.88;;;7.43;;
70071;SDS011;57434;42.794;23.302;2022-10-10T03:33:45;14.63;;;7.72;;
70071;SDS011;57434;42.794;23.302;2022-10-10T03:36:12;12.20;;;6.93;;
70071;SDS011;57434;42.794;23.302;2022-10-10T03:38:39;14.45;;;7.18;;
70071;SDS011;57434;42.794;23.302;2022-10-10T03:41:06;14.77;;;7.87;;
70071;SDS011;57434;42.794;23.302;2022-10-10T03:43:33;16.85;;;9.18;;
70071;SDS011;57434;42.794;23.302;2022-10-10T03:46:00;15.75;;;7.93;;
70071;SDS011;57434;42.794;23.302;2022-10-10T03:48:27;15.13;;;8.35;;
70071;SDS011;57434;42.794;23.302;2022-10-10T03:50:54;15.25;;;8.07;;
70071;SDS011;57434;42.794;23.302;2022-10-10T03:53:21;17.10;;;7.67;;
70071;SDS011;57434;42.794;23.302;2022-10-10T03:55:48;13.48;;;8.23;;
70071;SDS011;57434;42.794;23.302;2022-10-10T03:58:16;17.80;;;8.05;;
70071;SDS011;57434;42.794;23.302;2022-10-10T04:00:56;15.75;;;7.65;;
70071;SDS011;57434;42.794;23.302;2022-10-10T04:03:25;15.73;;;7.28;;
70071;SDS011;57434;42.794;23.302;2022-10-10T04:05:52;16.33;;;7.50;;
70071;SDS011;57434;42.794;23.302;2022-10-10T04:08:20;13.77;;;6.90;;
70071;SDS011;57434;42.794;23.302;2022-10-10T04:10:48;15.63;;;8.82;;
70071;SDS011;57434;42.794;23.302;2022-10-10T04:13:16;15.55;;;7.85;;
70071;SDS011;57434;42.794;23.302;2022-10-10T04:15:43;15.55;;;7.82;;
70071;SDS011;57434;42.794;23.302;2022-10-10T04:18:10;17.43;;;8.13;;
70071;SDS011;57434;42.794;23.302;2022-10-10T04:20:37;17.55;;;7.78;;
70071;SDS011;57434;42.794;23.302;2022-10-10T04:23:04;15.05;;;8.75;;
70071;SDS011;57434;42.794;23.302;2022-10-10T04:25:31;15.02;;;7.63;;
70071;SDS011;57434;42.794;23.302;2022-10-10T04:27:58;12.50;;;7.50;;
70071;SDS011;57434;42.794;23.302;2022-10-10T04:30:28;15.83;;;8.33;;
70071;SDS011;57434;42.794;23.302;2022-10-10T04:32:58;21.88;;;8.88;;
70071;SDS011;57434;42.794;23.302;2022-10-10T04:35:26;18.40;;;8.82;;
70071;SDS011;57434;42.794;23.302;2022-10-10T04:37:53;19.23;;;10.63;;
70071;SDS011;57434;42.794;23.302;2022-10-10T04:40:20;32.30;;;16.17;;
70071;SDS011;57434;42.794;23.302;2022-10-10T04:42:52;25.33;;;11.63;;
70071;SDS011;57434;42.794;23.302;2022-10-10T04:45:19;21.67;;;9.23;;
70071;SDS011;57434;42.794;23.302;2022-10-10T04:47:47;21.00;;;11.02;;
70071;SDS011;57434;42.794;23.302;2022-10-10T04:50:14;16.88;;;9.05;;
70071;SDS011;57434;42.794;23.302;2022-10-10T04:52:41;18.75;;;9.43;;
70071;SDS011;57434;42.794;23.302;2022-10-10T04:55:08;40.57;;;13.00;;
70071;SDS011;57434;42.794;23.302;2022-10-10T04:57:35;29.73;;;14.02;;
70071;SDS011;57434;42.794;23.302;2022-10-10T05:00:02;21.15;;;11.40;;
70071;SDS011;57434;42.794;23.302;2022-10-10T05:02:30;20.33;;;10.52;;
70071;SDS011;57434;42.794;23.302;2022-10-10T05:04:57;17.00;;;10.70;;
70071;SDS011;57434;42.794;23.302;2022-10-10T05:07:24;24.17;;;11.87;;
70071;SDS011;57434;42.794;23.302;2022-10-10T05:09:51;24.15;;;13.20;;
70071;SDS011;57434;42.794;23.302;2022-10-10T05:12:18;21.52;;;13.05;;
70071;SDS011;57434;42.794;23.302;2022-10-10T05:14:45;20.73;;;13.15;;
70071;SDS011;57434;42.794;23.302;2022-10-10T05:17:13;21.08;;;13.48;;
70071;SDS011;57434;42.794;23.302;2022-10-10T05:19:40;17.93;;;12.27;;
70071;SDS011;57434;42.794;23.302;2022-10-10T05:22:07;22.50;;;11.38;;
70071;SDS011;57434;42.794;23.302;2022-10-10T05:24:34;22.63;;;11.90;;
70071;SDS011;57434;42.794;23.302;2022-10-10T05:27:01;21.38;;;11.63;;
70071;SDS011;57434;42.794;23.302;2022-10-10T05:29:28;20.50;;;11.27;;
70071;SDS011;57434;42.794;23.302;2022-10-10T05:31:55;19.67;;;12.07;;
70071;SDS011;57434;42.794;23.302;2022-10-10T05:34:22;21.20;;;12.50;;
70071;SDS011;57434;42.794;23.302;2022-10-10T05:36:49;21.30;;;12.70;;
70071;SDS011;57434;42.794;23.302;2022-10-10T05:39:16;24.02;;;13.35;;
70071;SDS011;57434;42.794;23.302;2022-10-10T05:41:43;22.45;;;12.88;;
70071;SDS011;57434;42.794;23.302;2022-10-10T05:44:10;21.23;;;12.57;;
70071;SDS011;57434;42.794;23.302;2022-10-10T05:46:37;20.02;;;12.65;;
70071;SDS011;57434;42.794;23.302;2022-10-10T05:49:04;20.80;;;13.13;;
70071;SDS011;57434;42.794;23.302;2022-10-10T05:51:31;23.40;;;14.68;;
70071;SDS011;57434;42.794;23.302;2022-10-10T05:53:58;24.27;;;14.32;;
70071;SDS011;57434;42.794;23.302;2022-10-10T05:56:25;26.87;;;13.70;;
70071;SDS011;57434;42.794;23.302;2022-10-10T05:58:51;23.88;;;14.48;;
70071;SDS011;57434;42.794;23.302;2022-10-10T06:01:19;23.90;;;14.07;;
70071;SDS011;57434;42.794;23.302;2022-10-10T06:03:46;21.77;;;13.68;;
70071;SDS011;57434;42.794;23.302;2022-10-10T06:06:13;23.75;;;14.32;;
70071;SDS011;57434;42.794;23.302;2022-10-10T06:08:40;23.33;;;15.13;;
70071;SDS011;57434;42.794;23.302;2022-10-10T06:11:07;23.90;;;15.02;;
70071;SDS011;57434;42.794;23.302;2022-10-10T06:13:33;25.58;;;15.15;;
70071;SDS011;57434;42.794;23.302;2022-10-10T06:16:01;26.23;;;14.27;;
70071;SDS011;57434;42.794;23.302;2022-10-10T06:18:28;24.55;;;14.75;;
70071;SDS011;57434;42.794;23.302;2022-10-10T06:20:59;24.73;;;13.80;;
70071;SDS011;57434;42.794;23.302;2022-10-10T06:23:28;24.02;;;14.35;;
70071;SDS011;57434;42.794;23.302;2022-10-10T06:25:55;28.50;;;15.95;;
70071;SDS011;57434;42.794;23.302;2022-10-10T06:28:21;24.13;;;14.05;;
70071;SDS011;57434;42.794;23.302;2022-10-10T06:30:49;26.52;;;13.85;;
70071;SDS011;57434;42.794;23.302;2022-10-10T06:33:17;23.90;;;14.20;;
70071;SDS011;57434;42.794;23.302;2022-10-10T06:35:45;23.20;;;14.20;;
70071;SDS011;57434;42.794;23.302;2022-10-10T06:38:14;28.08;;;16.35;;
70071;SDS011;57434;42.794;23.302;2022-10-10T06:40:42;29.25;;;15.75;;
70071;SDS011;57434;42.794;23.302;2022-10-10T06:43:10;24.70;;;15.73;;
70071;SDS011;57434;42.794;23.302;2022-10-10T06:45:39;30.60;;;15.90;;
70071;SDS011;57434;42.794;23.302;2022-10-10T06:48:07;24.58;;;16.60;;
70071;SDS011;57434;42.794;23.302;2022-10-10T06:50:35;27.00;;;16.80;;
70071;SDS011;57434;42.794;23.302;2022-10-10T06:53:02;27.70;;;17.17;;
70071;SDS011;57434;42.794;23.302;2022-10-10T06:55:29;26.02;;;15.88;;
70071;SDS011;57434;42.794;23.302;2022-10-10T06:57:56;28.67;;;16.03;;
70071;SDS011;57434;42.794;23.302;2022-10-10T07:00:24;27.75;;;17.05;;
70071;SDS011;57434;42.794;23.302;2022-10-10T07:02:51;26.80;;;16.30;;
70071;SDS011;57434;42.794;23.302;2022-10-10T07:05:18;26.70;;;16.63;;
70071;SDS011;57434;42.794;23.302;2022-10-10T07:07:45;28.25;;;17.05;;
70071;SDS011;57434;42.794;23.302;2022-10-10T07:10:13;28.40;;;15.00;;
70071;SDS011;57434;42.794;23.302;2022-10-10T07:12:41;35.42;;;15.63;;
70071;SDS011;57434;42.794;23.302;2022-10-10T07:15:10;21.08;;;13.63;;
70071;SDS011;57434;42.794;23.302;2022-10-10T07:17:37;27.23;;;15.43;;
70071;SDS011;57434;42.794;23.302;2022-10-10T07:20:04;24.92;;;14.70;;
70071;SDS011;57434;42.794;23.302;2022-10-10T07:22:31;31.13;;;14.97;;
70071;SDS011;57434;42.794;23.302;2022-10-10T07:24:58;23.75;;;13.68;;
70071;SDS011;57434;42.794;23.302;2022-10-10T07:27:25;21.98;;;13.65;;
70071;SDS011;57434;42.794;23.302;2022-10-10T07:29:53;23.92;;;14.90;;
70071;SDS011;57434;42.794;23.302;2022-10-10T07:32:20;21.33;;;14.05;;
70071;SDS011;57434;42.794;23.302;2022-10-10T07:34:47;22.97;;;12.63;;
70071;SDS011;57434;42.794;23.302;2022-10-10T07:37:14;20.65;;;12.52;;
70071;SDS011;57434;42.794;23.302;2022-10-10T07:39:41;18.27;;;11.95;;
70071;SDS011;57434;42.794;23.302;2022-10-10T07:42:08;21.25;;;11.82;;
70071;SDS011;57434;42.794;23.302;2022-10-10T07:44:35;18.40;;;11.80;;
70071;SDS011;57434;42.794;23.302;2022-10-10T07:47:02;20.63;;;11.87;;
70071;SDS011;57434;42.794;23.302;2022-10-10T07:49:28;19.20;;;12.05;;
70071;SDS011;57434;42.794;23.302;2022-10-10T07:51:55;19.00;;;11.68;;
70071;SDS011;57434;42.794;23.302;2022-10-10T07:54:27;21.27;;;13.15;;
70071;SDS011;57434;42.794;23.302;2022-10-10T07:56:55;20.52;;;12.15;;
70071;SDS011;57434;42.794;23.302;2022-10-10T07:59:22;19.97;;;11.63;;
70071;SDS011;57434;42.794;23.302;2022-10-10T08:01:50;17.33;;;11.07;;
70071;SDS011;57434;42.794;23.302;2022-10-10T08:04:18;17.70;;;11.45;;
70071;SDS011;57434;42.794;23.302;2022-10-10T08:06:45;15.20;;;9.50;;
70071;SDS011;57434;42.794;23.302;2022-10-10T08:09:12;18.25;;;10.40;;
70071;SDS011;57434;42.794;23.302;2022-10-10T08:11:39;18.47;;;10.20;;
70071;SDS011;57434;42.794;23.302;2022-10-10T08:14:06;17.45;;;10.70;;
70071;SDS011;57434;42.794;23.302;2022-10-10T08:16:33;18.23;;;10.75;;
70071;SDS011;57434;42.794;23.302;2022-10-10T08:19:00;17.50;;;10.38;;
70071;SDS011;57434;42.794;23.302;2022-10-10T08:21:27;20.42;;;10.95;;
70071;SDS011;57434;42.794;23.302;2022-10-10T08:23:54;15.53;;;9.80;;
70071;SDS011;57434;42.794;23.302;2022-10-10T08:26:21;16.67;;;9.43;;
70071;SDS011;57434;42.794;23.302;2022-10-10T08:28:48;19.13;;;9.13;;
70071;SDS011;57434;42.794;23.302;2022-10-10T08:31:17;15.57;;;9.48;;
70071;SDS011;57434;42.794;23.302;2022-10-10T08:33:45;15.27;;;9.10;;
70071;SDS011;57434;42.794;23.302;2022-10-10T08:36:14;18.13;;;9.27;;
70071;SDS011;57434;42.794;23.302;2022-10-10T08:38:43;14.35;;;8.88;;
70071;SDS011;57434;42.794;23.302;2022-10-10T08:41:23;17.58;;;9.60;;
70071;SDS011;57434;42.794;23.302;2022-10-10T08:43:57;15.57;;;8.82;;
70071;SDS011;57434;42.794;23.302;2022-10-10T08:46:52;12.07;;;7.95;;
70071;SDS011;57434;42.794;23.302;2022-10-10T08:49:24;13.23;;;8.20;;
70071;SDS011;57434;42.794;23.302;2022-10-10T08:52:00;12.25;;;8.07;;
70071;SDS011;57434;42.794;23.302;2022-10-10T08:54:33;15.43;;;8.35;;
70071;SDS011;57434;42.794;23.302;2022-10-10T08:57:03;17.85;;;8.88;;
70071;SDS011;57434;42.794;23.302;2022-10-10T08:59:33;12.77;;;8.13;;
70071;SDS011;57434;42.794;23.302;2022-10-10T09:05:16;10.75;;;6.20;;
70071;SDS011;57434;42.794;23.302;2022-10-10T09:21:21;13.52;;;6.18;;
70071;SDS011;57434;42.794;23.302;2022-10-10T09:23:53;12.48;;;7.13;;
70071;SDS011;57434;42.794;23.302;2022-10-10T09:26:30;16.52;;;6.90;;
70071;SDS011;57434;42.794;23.302;2022-10-10T09:34:37;14.00;;;6.32;;
70071;SDS011;57434;42.794;23.302;2022-10-10T09:37:09;9.77;;;5.53;;
70071;SDS011;57434;42.794;23.302;2022-10-10T09:39:56;11.80;;;6.50;;
70071;SDS011;57434;42.794;23.302;2022-10-10T09:42:32;10.83;;;5.80;;
70071;SDS011;57434;42.794;23.302;2022-10-10T09:45:05;10.15;;;5.93;;
70071;SDS011;57434;42.794;23.302;2022-10-10T09:47:45;11.98;;;6.13;;
70071;SDS011;57434;42.794;23.302;2022-10-10T09:50:14;12.23;;;5.90;;
70071;SDS011;57434;42.794;23.302;2022-10-10T09:52:42;10.85;;;6.18;;
70071;SDS011;57434;42.794;23.302;2022-10-10T09:55:30;9.80;;;5.23;;
70071;SDS011;57434;42.794;23.302;2022-10-10T09:58:11;12.52;;;5.35;;
70071;SDS011;57434;42.794;23.302;2022-10-10T10:00:50;9.52;;;6.25;;
70071;SDS011;57434;42.794;23.302;2022-10-10T10:03:18;8.95;;;5.43;;
70071;SDS011;57434;42.794;23.302;2022-10-10T10:05:59;10.13;;;5.05;;
70071;SDS011;57434;42.794;23.302;2022-10-10T10:08:28;11.50;;;5.70;;
70071;SDS011;57434;42.794;23.302;2022-10-10T10:10:55;9.38;;;4.70;;
70071;SDS011;57434;42.794;23.302;2022-10-10T10:13:28;12.38;;;6.72;;
70071;SDS011;57434;42.794;23.302;2022-10-10T10:16:23;11.73;;;5.90;;
70071;SDS011;57434;42.794;23.302;2022-10-10T10:18:45;9.07;;;4.90;;
70071;SDS011;57434;42.794;23.302;2022-10-10T10:21:17;8.10;;;5.27;;
70071;SDS011;57434;42.794;23.302;2022-10-10T10:28:50;9.80;;;5.22;;
70071;SDS011;57434;42.794;23.302;2022-10-10T10:37:39;9.63;;;5.05;;
70071;SDS011;57434;42.794;23.302;2022-10-10T10:45:11;10.23;;;5.65;;
70071;SDS011;57434;42.794;23.302;2022-10-10T10:50:47;9.02;;;5.68;;
70071;SDS011;57434;42.794;23.302;2022-10-10T11:10:39;8.38;;;5.20;;
70071;SDS011;57434;42.794;23.302;2022-10-10T11:13:44;9.55;;;5.28;;
70071;SDS011;57434;42.794;23.302;2022-10-10T11:16:21;9.23;;;5.17;;
70071;SDS011;57434;42.794;23.302;2022-10-10T11:21:41;9.82;;;5.10;;
70071;SDS011;57434;42.794;23.302;2022-10-10T11:27:35;10.00;;;4.85;;
70071;SDS011;57434;42.794;23.302;2022-10-10T11:30:19;9.37;;;4.63;;
70071;SDS011;57434;42.794;23.302;2022-10-10T11:35:41;8.75;;;5.00;;
70071;SDS011;57434;42.794;23.302;2022-10-10T11:38:17;9.15;;;5.07;;
70071;SDS011;57434;42.794;23.302;2022-10-10T11:43:27;12.07;;;5.93;;
70071;SDS011;57434;42.794;23.302;2022-10-10T11:46:04;12.30;;;4.78;;
70071;SDS011;57434;42.794;23.302;2022-10-10T11:48:42;7.90;;;5.00;;
70071;SDS011;57434;42.794;23.302;2022-10-10T11:57:33;9.30;;;4.47;;
70071;SDS011;57434;42.794;23.302;2022-10-10T12:00:14;9.25;;;4.95;;
70071;SDS011;57434;42.794;23.302;2022-10-10T12:02:43;8.10;;;4.53;;
70071;SDS011;57434;42.794;23.302;2022-10-10T12:05:25;8.38;;;4.88;;
70071;SDS011;57434;42.794;23.302;2022-10-10T12:10:25;11.93;;;5.40;;
70071;SDS011;57434;42.794;23.302;2022-10-10T12:12:57;10.85;;;5.93;;
70071;SDS011;57434;42.794;23.302;2022-10-10T12:15:40;17.45;;;6.88;;
70071;SDS011;57434;42.794;23.302;2022-10-10T12:18:30;17.65;;;7.88;;
70071;SDS011;57434;42.794;23.302;2022-10-10T12:21:18;9.02;;;5.30;;
70071;SDS011;57434;42.794;23.302;2022-10-10T12:23:49;7.27;;;4.63;;
70071;SDS011;57434;42.794;23.302;2022-10-10T12:37:23;9.83;;;5.00;;
70071;SDS011;57434;42.794;23.302;2022-10-10T12:42:36;12.23;;;5.38;;
70071;SDS011;57434;42.794;23.302;2022-10-10T12:47:54;18.10;;;8.63;;
70071;SDS011;57434;42.794;23.302;2022-10-10T12:50:39;15.60;;;6.83;;
70071;SDS011;57434;42.794;23.302;2022-10-10T12:55:43;11.75;;;5.15;;
70071;SDS011;57434;42.794;23.302;2022-10-10T13:00:52;10.45;;;5.50;;
70071;SDS011;57434;42.794;23.302;2022-10-10T13:06:14;10.85;;;5.25;;
70071;SDS011;57434;42.794;23.302;2022-10-10T13:09:08;9.35;;;5.20;;
70071;SDS011;57434;42.794;23.302;2022-10-10T13:11:58;9.43;;;5.63;;
70071;SDS011;57434;42.794;23.302;2022-10-10T13:14:35;11.93;;;5.05;;
70071;SDS011;57434;42.794;23.302;2022-10-10T13:17:20;12.63;;;5.50;;
70071;SDS011;57434;42.794;23.302;2022-10-10T13:19:58;8.10;;;4.80;;
70071;SDS011;57434;42.794;23.302;2022-10-10T13:22:27;9.68;;;5.03;;
70071;SDS011;57434;42.794;23.302;2022-10-10T13:24:55;9.55;;;5.03;;
70071;SDS011;57434;42.794;23.302;2022-10-10T13:27:25;11.80;;;5.32;;
70071;SDS011;57434;42.794;23.302;2022-10-10T13:29:54;11.27;;;4.50;;
70071;SDS011;57434;42.794;23.302;2022-10-10T13:32:26;11.90;;;5.60;;
70071;SDS011;57434;42.794;23.302;2022-10-10T13:35:01;9.60;;;5.35;;
70071;SDS011;57434;42.794;23.302;2022-10-10T13:37:31;9.07;;;5.35;;
70071;SDS011;57434;42.794;23.302;2022-10-10T13:39:59;9.75;;;5.10;;
70071;SDS011;57434;42.794;23.302;2022-10-10T13:45:00;13.23;;;5.07;;
70071;SDS011;57434;42.794;23.302;2022-10-10T13:50:29;8.73;;;5.65;;
70071;SDS011;57434;42.794;23.302;2022-10-10T13:58:51;10.27;;;5.60;;
70071;SDS011;57434;42.794;23.302;2022-10-10T14:04:02;10.73;;;5.25;;
70071;SDS011;57434;42.794;23.302;2022-10-10T14:06:33;10.57;;;5.93;;
70071;SDS011;57434;42.794;23.302;2022-10-10T14:09:21;11.67;;;5.20;;
70071;SDS011;57434;42.794;23.302;2022-10-10T14:11:53;9.52;;;5.35;;
70071;SDS011;57434;42.794;23.302;2022-10-10T14:14:22;9.55;;;5.60;;
70071;SDS011;57434;42.794;23.302;2022-10-10T14:16:58;9.65;;;5.40;;
70071;SDS011;57434;42.794;23.302;2022-10-10T14:19:27;11.63;;;5.43;;
70071;SDS011;57434;42.794;23.302;2022-10-10T14:21:55;11.07;;;6.30;;
70071;SDS011;57434;42.794;23.302;2022-10-10T14:24:22;9.13;;;5.45;;
70071;SDS011;57434;42.794;23.302;2022-10-10T14:26:49;9.73;;;4.78;;
70071;SDS011;57434;42.794;23.302;2022-10-10T14:29:17;8.93;;;5.47;;
70071;SDS011;57434;42.794;23.302;2022-10-10T14:31:44;14.55;;;6.88;;
70071;SDS011;57434;42.794;23.302;2022-10-10T14:34:13;13.27;;;5.43;;
70071;SDS011;57434;42.794;23.302;2022-10-10T14:36:47;13.20;;;5.65;;
70071;SDS011;57434;42.794;23.302;2022-10-10T14:39:16;9.95;;;4.68;;
70071;SDS011;57434;42.794;23.302;2022-10-10T14:41:44;6.40;;;3.80;;
70071;SDS011;57434;42.794;23.302;2022-10-10T14:44:12;10.07;;;5.57;;
70071;SDS011;57434;42.794;23.302;2022-10-10T14:46:39;10.10;;;6.10;;
70071;SDS011;57434;42.794;23.302;2022-10-10T14:49:13;13.93;;;5.40;;
70071;SDS011;57434;42.794;23.302;2022-10-10T14:51:43;9.10;;;4.70;;
70071;SDS011;57434;42.794;23.302;2022-10-10T14:54:10;7.25;;;4.25;;
70071;SDS011;57434;42.794;23.302;2022-10-10T14:56:42;11.70;;;4.95;;
70071;SDS011;57434;42.794;23.302;2022-10-10T14:59:30;13.07;;;5.17;;
70071;SDS011;57434;42.794;23.302;2022-10-10T15:02:14;11.02;;;4.82;;
70071;SDS011;57434;42.794;23.302;2022-10-10T15:04:41;12.90;;;4.80;;
70071;SDS011;57434;42.794;23.302;2022-10-10T15:07:09;13.18;;;4.93;;
70071;SDS011;57434;42.794;23.302;2022-10-10T15:09:40;10.60;;;5.13;;
70071;SDS011;57434;42.794;23.302;2022-10-10T15:12:32;11.37;;;4.80;;
70071;SDS011;57434;42.794;23.302;2022-10-10T15:15:00;10.35;;;4.88;;
70071;SDS011;57434;42.794;23.302;2022-10-10T15:17:27;8.88;;;5.30;;
70071;SDS011;57434;42.794;23.302;2022-10-10T15:19:54;11.43;;;5.68;;
70071;SDS011;57434;42.794;23.302;2022-10-10T15:22:21;11.75;;;6.18;;
70071;SDS011;57434;42.794;23.302;2022-10-10T15:24:48;11.67;;;6.80;;
70071;SDS011;57434;42.794;23.302;2022-10-10T15:27:15;10.50;;;5.47;;
70071;SDS011;57434;42.794;23.302;2022-10-10T15:29:42;14.20;;;6.70;;
70071;SDS011;57434;42.794;23.302;2022-10-10T15:32:09;12.32;;;5.80;;
70071;SDS011;57434;42.794;23.302;2022-10-10T15:34:36;10.23;;;4.60;;
70071;SDS011;57434;42.794;23.302;2022-10-10T15:37:03;14.70;;;4.83;;
70071;SDS011;57434;42.794;23.302;2022-10-10T15:39:32;12.15;;;4.95;;
70071;SDS011;57434;42.794;23.302;2022-10-10T15:42:00;13.07;;;5.00;;
70071;SDS011;57434;42.794;23.302;2022-10-10T15:44:42;9.85;;;4.68;;
70071;SDS011;57434;42.794;23.302;2022-10-10T15:47:11;12.18;;;5.97;;
70071;SDS011;57434;42.794;23.302;2022-10-10T15:49:40;9.93;;;5.73;;
70071;SDS011;57434;42.794;23.302;2022-10-10T15:52:07;12.13;;;6.65;;
70071;SDS011;57434;42.794;23.302;2022-10-10T15:54:35;16.38;;;6.65;;
70071;SDS011;57434;42.794;23.302;2022-10-10T15:57:02;12.48;;;5.60;;
70071;SDS011;57434;42.794;23.302;2022-10-10T15:59:30;10.77;;;5.50;;
70071;SDS011;57434;42.794;23.302;2022-10-10T16:01:57;13.33;;;6.10;;
70071;SDS011;57434;42.794;23.302;2022-10-10T16:04:24;12.10;;;5.43;;
70071;SDS011;57434;42.794;23.302;2022-10-10T16:06:51;11.85;;;5.95;;
70071;SDS011;57434;42.794;23.302;2022-10-10T16:09:31;9.93;;;5.10;;
70071;SDS011;57434;42.794;23.302;2022-10-10T16:11:59;13.32;;;6.22;;
70071;SDS011;57434;42.794;23.302;2022-10-10T16:14:27;10.77;;;6.20;;
70071;SDS011;57434;42.794;23.302;2022-10-10T16:16:55;10.50;;;6.18;;
70071;SDS011;57434;42.794;23.302;2022-10-10T16:19:29;9.93;;;6.22;;
70071;SDS011;57434;42.794;23.302;2022-10-10T16:21:56;13.38;;;6.25;;
70071;SDS011;57434;42.794;23.302;2022-10-10T16:24:23;11.27;;;5.75;;
70071;SDS011;57434;42.794;23.302;2022-10-10T16:26:50;13.53;;;6.23;;
70071;SDS011;57434;42.794;23.302;2022-10-10T16:29:17;15.73;;;6.93;;
70071;SDS011;57434;42.794;23.302;2022-10-10T16:31:44;13.75;;;6.57;;
70071;SDS011;57434;42.794;23.302;2022-10-10T16:34:11;12.68;;;6.85;;
70071;SDS011;57434;42.794;23.302;2022-10-10T16:36:38;17.27;;;8.38;;
70071;SDS011;57434;42.794;23.302;2022-10-10T16:39:05;15.03;;;7.80;;
70071;SDS011;57434;42.794;23.302;2022-10-10T16:41:32;19.85;;;7.68;;
70071;SDS011;57434;42.794;23.302;2022-10-10T16:44:15;13.68;;;7.20;;
70071;SDS011;57434;42.794;23.302;2022-10-10T16:46:42;14.75;;;7.53;;
70071;SDS011;57434;42.794;23.302;2022-10-10T16:49:11;14.23;;;7.05;;
70071;SDS011;57434;42.794;23.302;2022-10-10T16:51:39;12.37;;;6.37;;
70071;SDS011;57434;42.794;23.302;2022-10-10T16:54:06;14.13;;;6.32;;
70071;SDS011;57434;42.794;23.302;2022-10-10T16:56:33;14.07;;;6.40;;
70071;SDS011;57434;42.794;23.302;2022-10-10T16:59:00;14.15;;;8.02;;
70071;SDS011;57434;42.794;23.302;2022-10-10T17:01:28;12.18;;;6.55;;
70071;SDS011;57434;42.794;23.302;2022-10-10T17:03:57;12.97;;;6.03;;